sensor_id;sensor_type;location;lat;lon;timestamp;P1;durP1;ratioP1;P2;durP2;ratioP2
72924;SDS011;61070;50.794;7.054;2023-04-25T00:01:46;15.10;;;4.72;;
72924;SDS011;61070;50.794;7.054;2023-04-25T00:04:11;12.93;;;3.63;;
72924;SDS011;61070;50.794;7.054;2023-04-25T00:06:37;14.90;;;4.32;;
72924;SDS011;61070;50.794;7.054;2023-04-25T00:09:05;18.38;;;4.45;;
72924;SDS011;61070;50.794;7.054;2023-04-25T00:11:34;17.85;;;4.25;;
72924;SDS011;61070;50.794;7.054;2023-04-25T00:13:59;17.48;;;4.80;;
72924;SDS011;61070;50.794;7.054;2023-04-25T00:16:27;13.65;;;4.05;;
72924;SDS011;61070;50.794;7.054;2023-04-25T00:18:54;18.63;;;5.00;;
72924;SDS011;61070;50.794;7.054;2023-04-25T00:21:19;12.93;;;4.05;;
72924;SDS011;61070;50.794;7.054;2023-04-25T00:23:45;22.55;;;4.38;;
72924;SDS011;61070;50.794;7.054;2023-04-25T00:26:11;17.30;;;5.25;;
72924;SDS011;61070;50.794;7.054;2023-04-25T00:28:37;15.55;;;4.20;;
72924;SDS011;61070;50.794;7.054;2023-04-25T00:31:02;15.13;;;4.10;;
72924;SDS011;61070;50.794;7.054;2023-04-25T00:33:28;14.98;;;4.22;;
72924;SDS011;61070;50.794;7.054;2023-04-25T00:35:53;17.88;;;4.47;;
72924;SDS011;61070;50.794;7.054;2023-04-25T00:38:19;11.82;;;4.20;;
72924;SDS011;61070;50.794;7.054;2023-04-25T00:40:44;17.00;;;4.72;;
72924;SDS011;61070;50.794;7.054;2023-04-25T00:43:09;16.63;;;4.90;;
72924;SDS011;61070;50.794;7.054;2023-04-25T00:45:34;11.48;;;3.83;;
72924;SDS011;61070;50.794;7.054;2023-04-25T00:48:03;14.52;;;4.47;;
72924;SDS011;61070;50.794;7.054;2023-04-25T00:50:29;17.58;;;4.70;;
72924;SDS011;61070;50.794;7.054;2023-04-25T00:52:55;15.88;;;5.15;;
72924;SDS011;61070;50.794;7.054;2023-04-25T00:55:20;12.18;;;4.03;;
72924;SDS011;61070;50.794;7.054;2023-04-25T00:57:46;23.63;;;4.93;;
72924;SDS011;61070;50.794;7.054;2023-04-25T01:00:12;20.23;;;4.43;;
72924;SDS011;61070;50.794;7.054;2023-04-25T01:02:39;14.35;;;4.93;;
72924;SDS011;61070;50.794;7.054;2023-04-25T01:05:06;10.63;;;4.15;;
72924;SDS011;61070;50.794;7.054;2023-04-25T01:07:31;15.10;;;4.68;;
72924;SDS011;61070;50.794;7.054;2023-04-25T01:09:57;13.68;;;4.88;;
72924;SDS011;61070;50.794;7.054;2023-04-25T01:12:23;13.57;;;4.32;;
72924;SDS011;61070;50.794;7.054;2023-04-25T01:14:48;18.67;;;4.88;;
72924;SDS011;61070;50.794;7.054;2023-04-25T01:17:14;23.80;;;4.85;;
72924;SDS011;61070;50.794;7.054;2023-04-25T01:19:41;19.05;;;5.07;;
72924;SDS011;61070;50.794;7.054;2023-04-25T01:22:06;12.57;;;4.93;;
72924;SDS011;61070;50.794;7.054;2023-04-25T01:24:32;20.08;;;4.93;;
72924;SDS011;61070;50.794;7.054;2023-04-25T01:26:58;19.10;;;5.68;;
72924;SDS011;61070;50.794;7.054;2023-04-25T01:29:25;17.00;;;4.90;;
72924;SDS011;61070;50.794;7.054;2023-04-25T01:31:52;16.90;;;5.03;;
72924;SDS011;61070;50.794;7.054;2023-04-25T01:34:17;23.73;;;5.82;;
72924;SDS011;61070;50.794;7.054;2023-04-25T01:36:43;24.13;;;5.82;;
72924;SDS011;61070;50.794;7.054;2023-04-25T01:39:08;23.17;;;5.35;;
72924;SDS011;61070;50.794;7.054;2023-04-25T01:41:34;23.73;;;5.00;;
72924;SDS011;61070;50.794;7.054;2023-04-25T01:44:00;17.70;;;4.78;;
72924;SDS011;61070;50.794;7.054;2023-04-25T01:46:25;21.10;;;5.03;;
72924;SDS011;61070;50.794;7.054;2023-04-25T01:48:51;21.58;;;6.32;;
72924;SDS011;61070;50.794;7.054;2023-04-25T01:51:17;18.40;;;5.45;;
72924;SDS011;61070;50.794;7.054;2023-04-25T01:53:42;17.98;;;5.60;;
72924;SDS011;61070;50.794;7.054;2023-04-25T01:56:08;19.15;;;4.80;;
72924;SDS011;61070;50.794;7.054;2023-04-25T01:58:33;21.45;;;5.65;;
72924;SDS011;61070;50.794;7.054;2023-04-25T02:00:58;21.15;;;5.28;;
72924;SDS011;61070;50.794;7.054;2023-04-25T02:03:24;20.90;;;5.45;;
72924;SDS011;61070;50.794;7.054;2023-04-25T02:05:50;20.35;;;5.53;;
72924;SDS011;61070;50.794;7.054;2023-04-25T02:08:16;18.33;;;5.53;;
72924;SDS011;61070;50.794;7.054;2023-04-25T02:10:42;17.98;;;5.55;;
72924;SDS011;61070;50.794;7.054;2023-04-25T02:13:07;19.88;;;5.60;;
72924;SDS011;61070;50.794;7.054;2023-04-25T02:15:32;14.23;;;6.38;;
72924;SDS011;61070;50.794;7.054;2023-04-25T02:17:57;23.77;;;6.75;;
72924;SDS011;61070;50.794;7.054;2023-04-25T02:20:25;17.23;;;5.70;;
72924;SDS011;61070;50.794;7.054;2023-04-25T02:22:50;21.25;;;6.38;;
72924;SDS011;61070;50.794;7.054;2023-04-25T02:25:16;27.92;;;6.53;;
72924;SDS011;61070;50.794;7.054;2023-04-25T02:27:42;25.95;;;6.60;;
72924;SDS011;61070;50.794;7.054;2023-04-25T02:30:08;24.58;;;7.45;;
72924;SDS011;61070;50.794;7.054;2023-04-25T02:32:34;20.35;;;6.32;;
72924;SDS011;61070;50.794;7.054;2023-04-25T02:34:59;22.52;;;6.63;;
72924;SDS011;61070;50.794;7.054;2023-04-25T02:37:29;17.67;;;6.32;;
72924;SDS011;61070;50.794;7.054;2023-04-25T02:40:02;28.60;;;6.72;;
72924;SDS011;61070;50.794;7.054;2023-04-25T02:42:28;24.35;;;6.78;;
72924;SDS011;61070;50.794;7.054;2023-04-25T02:44:54;21.92;;;5.82;;
72924;SDS011;61070;50.794;7.054;2023-04-25T02:47:19;21.83;;;6.53;;
72924;SDS011;61070;50.794;7.054;2023-04-25T02:49:45;25.40;;;6.82;;
72924;SDS011;61070;50.794;7.054;2023-04-25T02:52:11;27.15;;;6.30;;
72924;SDS011;61070;50.794;7.054;2023-04-25T02:54:36;19.30;;;6.95;;
72924;SDS011;61070;50.794;7.054;2023-04-25T02:57:01;29.63;;;6.57;;
72924;SDS011;61070;50.794;7.054;2023-04-25T02:59:27;22.90;;;6.35;;
72924;SDS011;61070;50.794;7.054;2023-04-25T03:01:53;19.75;;;6.50;;
72924;SDS011;61070;50.794;7.054;2023-04-25T03:04:18;25.10;;;6.28;;
72924;SDS011;61070;50.794;7.054;2023-04-25T03:06:44;19.38;;;6.78;;
72924;SDS011;61070;50.794;7.054;2023-04-25T03:09:09;22.27;;;6.90;;
72924;SDS011;61070;50.794;7.054;2023-04-25T03:11:35;23.85;;;7.43;;
72924;SDS011;61070;50.794;7.054;2023-04-25T03:14:01;21.90;;;6.82;;
72924;SDS011;61070;50.794;7.054;2023-04-25T03:16:27;24.55;;;7.28;;
72924;SDS011;61070;50.794;7.054;2023-04-25T03:18:52;15.25;;;6.22;;
72924;SDS011;61070;50.794;7.054;2023-04-25T03:21:17;33.38;;;6.63;;
72924;SDS011;61070;50.794;7.054;2023-04-25T03:23:43;27.05;;;6.70;;
72924;SDS011;61070;50.794;7.054;2023-04-25T03:26:08;22.45;;;6.60;;
72924;SDS011;61070;50.794;7.054;2023-04-25T03:28:33;17.55;;;7.00;;
72924;SDS011;61070;50.794;7.054;2023-04-25T03:30:58;23.20;;;6.07;;
72924;SDS011;61070;50.794;7.054;2023-04-25T03:33:24;18.88;;;6.35;;
72924;SDS011;61070;50.794;7.054;2023-04-25T03:35:49;26.25;;;7.00;;
72924;SDS011;61070;50.794;7.054;2023-04-25T03:38:15;32.90;;;7.05;;
72924;SDS011;61070;50.794;7.054;2023-04-25T03:40:40;24.80;;;6.90;;
72924;SDS011;61070;50.794;7.054;2023-04-25T03:43:05;24.10;;;6.28;;
72924;SDS011;61070;50.794;7.054;2023-04-25T03:45:31;21.13;;;5.80;;
72924;SDS011;61070;50.794;7.054;2023-04-25T03:47:56;21.48;;;6.40;;
72924;SDS011;61070;50.794;7.054;2023-04-25T03:50:21;19.90;;;6.00;;
72924;SDS011;61070;50.794;7.054;2023-04-25T03:52:47;21.95;;;6.63;;
72924;SDS011;61070;50.794;7.054;2023-04-25T03:55:12;22.27;;;6.05;;
72924;SDS011;61070;50.794;7.054;2023-04-25T03:57:37;24.30;;;6.20;;
72924;SDS011;61070;50.794;7.054;2023-04-25T04:00:03;26.33;;;6.13;;
72924;SDS011;61070;50.794;7.054;2023-04-25T04:02:29;17.13;;;6.75;;
72924;SDS011;61070;50.794;7.054;2023-04-25T04:04:54;18.27;;;6.53;;
72924;SDS011;61070;50.794;7.054;2023-04-25T04:07:21;35.05;;;6.68;;
72924;SDS011;61070;50.794;7.054;2023-04-25T04:09:46;20.83;;;6.18;;
72924;SDS011;61070;50.794;7.054;2023-04-25T04:12:12;13.40;;;5.93;;
72924;SDS011;61070;50.794;7.054;2023-04-25T04:14:37;30.73;;;6.47;;
72924;SDS011;61070;50.794;7.054;2023-04-25T04:17:02;21.40;;;6.35;;
72924;SDS011;61070;50.794;7.054;2023-04-25T04:19:28;18.95;;;5.40;;
72924;SDS011;61070;50.794;7.054;2023-04-25T04:21:53;19.88;;;5.82;;
72924;SDS011;61070;50.794;7.054;2023-04-25T04:24:19;22.90;;;6.57;;
72924;SDS011;61070;50.794;7.054;2023-04-25T04:26:44;16.42;;;5.95;;
72924;SDS011;61070;50.794;7.054;2023-04-25T04:29:10;24.25;;;6.10;;
72924;SDS011;61070;50.794;7.054;2023-04-25T04:31:35;18.52;;;5.72;;
72924;SDS011;61070;50.794;7.054;2023-04-25T04:34:01;20.20;;;6.63;;
72924;SDS011;61070;50.794;7.054;2023-04-25T04:36:26;20.35;;;6.15;;
72924;SDS011;61070;50.794;7.054;2023-04-25T04:38:52;12.57;;;6.15;;
72924;SDS011;61070;50.794;7.054;2023-04-25T04:41:18;17.38;;;6.43;;
72924;SDS011;61070;50.794;7.054;2023-04-25T04:43:44;21.05;;;6.43;;
72924;SDS011;61070;50.794;7.054;2023-04-25T04:46:09;23.52;;;6.57;;
72924;SDS011;61070;50.794;7.054;2023-04-25T04:48:35;20.30;;;6.38;;
72924;SDS011;61070;50.794;7.054;2023-04-25T04:51:00;26.38;;;6.95;;
72924;SDS011;61070;50.794;7.054;2023-04-25T04:53:26;21.35;;;6.30;;
72924;SDS011;61070;50.794;7.054;2023-04-25T04:55:52;22.63;;;6.28;;
72924;SDS011;61070;50.794;7.054;2023-04-25T04:58:17;19.23;;;7.40;;
72924;SDS011;61070;50.794;7.054;2023-04-25T05:00:43;16.15;;;6.25;;
72924;SDS011;61070;50.794;7.054;2023-04-25T05:03:08;32.67;;;7.35;;
72924;SDS011;61070;50.794;7.054;2023-04-25T05:05:33;20.15;;;7.43;;
72924;SDS011;61070;50.794;7.054;2023-04-25T05:07:58;26.95;;;7.03;;
72924;SDS011;61070;50.794;7.054;2023-04-25T05:10:25;24.50;;;6.63;;
72924;SDS011;61070;50.794;7.054;2023-04-25T05:12:51;22.85;;;6.60;;
72924;SDS011;61070;50.794;7.054;2023-04-25T05:15:16;22.25;;;6.80;;
72924;SDS011;61070;50.794;7.054;2023-04-25T05:17:41;19.52;;;7.90;;
72924;SDS011;61070;50.794;7.054;2023-04-25T05:20:07;22.70;;;7.43;;
72924;SDS011;61070;50.794;7.054;2023-04-25T05:22:34;21.48;;;7.53;;
72924;SDS011;61070;50.794;7.054;2023-04-25T05:25:00;20.98;;;8.35;;
72924;SDS011;61070;50.794;7.054;2023-04-25T05:27:26;19.00;;;7.60;;
72924;SDS011;61070;50.794;7.054;2023-04-25T05:29:51;29.45;;;7.97;;
72924;SDS011;61070;50.794;7.054;2023-04-25T05:32:17;30.17;;;7.60;;
72924;SDS011;61070;50.794;7.054;2023-04-25T05:34:43;18.58;;;6.65;;
72924;SDS011;61070;50.794;7.054;2023-04-25T05:37:08;32.03;;;8.25;;
72924;SDS011;61070;50.794;7.054;2023-04-25T05:39:33;22.75;;;7.30;;
72924;SDS011;61070;50.794;7.054;2023-04-25T05:41:59;26.23;;;6.22;;
72924;SDS011;61070;50.794;7.054;2023-04-25T05:44:24;34.10;;;7.82;;
72924;SDS011;61070;50.794;7.054;2023-04-25T05:46:49;23.92;;;6.88;;
72924;SDS011;61070;50.794;7.054;2023-04-25T05:49:15;23.38;;;5.97;;
72924;SDS011;61070;50.794;7.054;2023-04-25T05:51:40;27.20;;;7.15;;
72924;SDS011;61070;50.794;7.054;2023-04-25T05:54:05;27.88;;;7.75;;
72924;SDS011;61070;50.794;7.054;2023-04-25T05:56:31;22.85;;;6.93;;
72924;SDS011;61070;50.794;7.054;2023-04-25T05:58:56;27.98;;;6.13;;
72924;SDS011;61070;50.794;7.054;2023-04-25T06:01:23;25.38;;;5.93;;
72924;SDS011;61070;50.794;7.054;2023-04-25T06:03:48;30.20;;;5.68;;
72924;SDS011;61070;50.794;7.054;2023-04-25T06:06:14;22.40;;;5.65;;
72924;SDS011;61070;50.794;7.054;2023-04-25T06:08:39;25.45;;;5.78;;
72924;SDS011;61070;50.794;7.054;2023-04-25T06:11:05;24.75;;;5.57;;
72924;SDS011;61070;50.794;7.054;2023-04-25T06:13:31;20.02;;;5.40;;
72924;SDS011;61070;50.794;7.054;2023-04-25T06:15:56;25.65;;;5.30;;
72924;SDS011;61070;50.794;7.054;2023-04-25T06:18:21;28.10;;;5.35;;
72924;SDS011;61070;50.794;7.054;2023-04-25T06:20:47;26.90;;;5.93;;
72924;SDS011;61070;50.794;7.054;2023-04-25T06:23:12;27.15;;;5.68;;
72924;SDS011;61070;50.794;7.054;2023-04-25T06:25:37;29.30;;;5.80;;
72924;SDS011;61070;50.794;7.054;2023-04-25T06:28:03;38.50;;;5.93;;
72924;SDS011;61070;50.794;7.054;2023-04-25T06:30:28;24.80;;;5.35;;
72924;SDS011;61070;50.794;7.054;2023-04-25T06:32:53;23.65;;;5.60;;
72924;SDS011;61070;50.794;7.054;2023-04-25T06:35:19;31.35;;;5.03;;
72924;SDS011;61070;50.794;7.054;2023-04-25T06:37:44;20.95;;;5.65;;
72924;SDS011;61070;50.794;7.054;2023-04-25T06:40:10;21.58;;;5.55;;
72924;SDS011;61070;50.794;7.054;2023-04-25T06:42:35;24.25;;;5.57;;
72924;SDS011;61070;50.794;7.054;2023-04-25T06:45:01;23.02;;;5.32;;
72924;SDS011;61070;50.794;7.054;2023-04-25T06:47:27;22.77;;;4.93;;
72924;SDS011;61070;50.794;7.054;2023-04-25T06:49:52;17.92;;;4.80;;
72924;SDS011;61070;50.794;7.054;2023-04-25T06:52:17;25.67;;;4.95;;
72924;SDS011;61070;50.794;7.054;2023-04-25T06:54:43;29.00;;;5.00;;
72924;SDS011;61070;50.794;7.054;2023-04-25T06:57:08;24.63;;;4.80;;
72924;SDS011;61070;50.794;7.054;2023-04-25T06:59:33;20.65;;;6.03;;
72924;SDS011;61070;50.794;7.054;2023-04-25T07:01:59;30.00;;;5.75;;
72924;SDS011;61070;50.794;7.054;2023-04-25T07:04:24;30.42;;;5.35;;
72924;SDS011;61070;50.794;7.054;2023-04-25T07:06:50;17.35;;;4.68;;
72924;SDS011;61070;50.794;7.054;2023-04-25T07:09:15;15.95;;;4.38;;
72924;SDS011;61070;50.794;7.054;2023-04-25T07:11:41;19.58;;;4.40;;
72924;SDS011;61070;50.794;7.054;2023-04-25T07:14:06;17.90;;;4.18;;
72924;SDS011;61070;50.794;7.054;2023-04-25T07:16:32;14.18;;;3.55;;
72924;SDS011;61070;50.794;7.054;2023-04-25T07:18:57;25.50;;;5.07;;
72924;SDS011;61070;50.794;7.054;2023-04-25T07:21:22;27.33;;;4.38;;
72924;SDS011;61070;50.794;7.054;2023-04-25T07:23:47;23.77;;;4.65;;
72924;SDS011;61070;50.794;7.054;2023-04-25T07:26:13;22.23;;;4.68;;
72924;SDS011;61070;50.794;7.054;2023-04-25T07:28:38;21.05;;;4.75;;
72924;SDS011;61070;50.794;7.054;2023-04-25T07:31:04;26.27;;;5.75;;
72924;SDS011;61070;50.794;7.054;2023-04-25T07:33:30;21.48;;;4.63;;
72924;SDS011;61070;50.794;7.054;2023-04-25T07:35:55;16.50;;;4.13;;
72924;SDS011;61070;50.794;7.054;2023-04-25T07:38:21;17.30;;;4.15;;
72924;SDS011;61070;50.794;7.054;2023-04-25T07:40:49;21.02;;;4.15;;
72924;SDS011;61070;50.794;7.054;2023-04-25T07:43:14;20.70;;;4.05;;
72924;SDS011;61070;50.794;7.054;2023-04-25T07:45:44;11.35;;;3.63;;
72924;SDS011;61070;50.794;7.054;2023-04-25T07:48:10;20.98;;;3.63;;
72924;SDS011;61070;50.794;7.054;2023-04-25T07:50:36;18.77;;;3.78;;
72924;SDS011;61070;50.794;7.054;2023-04-25T07:53:01;13.57;;;2.78;;
72924;SDS011;61070;50.794;7.054;2023-04-25T07:55:27;13.98;;;3.03;;
72924;SDS011;61070;50.794;7.054;2023-04-25T07:57:53;18.67;;;2.80;;
72924;SDS011;61070;50.794;7.054;2023-04-25T08:00:18;20.85;;;3.38;;
72924;SDS011;61070;50.794;7.054;2023-04-25T08:02:44;15.55;;;4.00;;
72924;SDS011;61070;50.794;7.054;2023-04-25T08:05:09;18.70;;;2.63;;
72924;SDS011;61070;50.794;7.054;2023-04-25T08:07:37;11.70;;;2.70;;
72924;SDS011;61070;50.794;7.054;2023-04-25T08:10:04;15.07;;;3.47;;
72924;SDS011;61070;50.794;7.054;2023-04-25T08:12:30;12.98;;;2.58;;
72924;SDS011;61070;50.794;7.054;2023-04-25T08:14:56;11.73;;;2.67;;
72924;SDS011;61070;50.794;7.054;2023-04-25T08:17:21;18.48;;;2.75;;
72924;SDS011;61070;50.794;7.054;2023-04-25T08:19:46;19.75;;;3.55;;
72924;SDS011;61070;50.794;7.054;2023-04-25T08:22:11;15.85;;;2.65;;
72924;SDS011;61070;50.794;7.054;2023-04-25T08:24:37;15.93;;;3.22;;
72924;SDS011;61070;50.794;7.054;2023-04-25T08:27:03;13.82;;;3.05;;
72924;SDS011;61070;50.794;7.054;2023-04-25T08:29:28;11.75;;;2.95;;
72924;SDS011;61070;50.794;7.054;2023-04-25T08:31:53;10.20;;;2.55;;
72924;SDS011;61070;50.794;7.054;2023-04-25T08:34:18;15.82;;;2.70;;
72924;SDS011;61070;50.794;7.054;2023-04-25T08:36:45;14.20;;;3.63;;
72924;SDS011;61070;50.794;7.054;2023-04-25T08:39:10;16.48;;;2.63;;
72924;SDS011;61070;50.794;7.054;2023-04-25T08:41:36;12.48;;;2.90;;
72924;SDS011;61070;50.794;7.054;2023-04-25T08:44:02;9.45;;;2.50;;
72924;SDS011;61070;50.794;7.054;2023-04-25T08:46:29;10.52;;;2.85;;
72924;SDS011;61070;50.794;7.054;2023-04-25T08:48:57;18.27;;;2.95;;
72924;SDS011;61070;50.794;7.054;2023-04-25T08:51:26;13.90;;;2.40;;
72924;SDS011;61070;50.794;7.054;2023-04-25T08:53:55;16.02;;;2.67;;
72924;SDS011;61070;50.794;7.054;2023-04-25T08:56:24;17.60;;;3.38;;
72924;SDS011;61070;50.794;7.054;2023-04-25T08:58:50;13.23;;;2.55;;
72924;SDS011;61070;50.794;7.054;2023-04-25T09:01:16;10.55;;;2.13;;
72924;SDS011;61070;50.794;7.054;2023-04-25T09:03:44;6.93;;;2.15;;
72924;SDS011;61070;50.794;7.054;2023-04-25T09:06:12;13.75;;;3.45;;
72924;SDS011;61070;50.794;7.054;2023-04-25T09:08:37;16.83;;;2.47;;
72924;SDS011;61070;50.794;7.054;2023-04-25T09:11:05;13.95;;;3.05;;
72924;SDS011;61070;50.794;7.054;2023-04-25T09:13:31;7.78;;;2.10;;
72924;SDS011;61070;50.794;7.054;2023-04-25T09:15:57;6.80;;;1.73;;
72924;SDS011;61070;50.794;7.054;2023-04-25T09:18:23;10.98;;;2.75;;
72924;SDS011;61070;50.794;7.054;2023-04-25T09:20:51;13.27;;;1.60;;
72924;SDS011;61070;50.794;7.054;2023-04-25T09:23:21;7.18;;;1.80;;
72924;SDS011;61070;50.794;7.054;2023-04-25T09:25:52;12.25;;;2.42;;
72924;SDS011;61070;50.794;7.054;2023-04-25T09:28:25;10.27;;;2.15;;
72924;SDS011;61070;50.794;7.054;2023-04-25T09:30:58;9.50;;;1.95;;
72924;SDS011;61070;50.794;7.054;2023-04-25T09:33:33;9.05;;;1.77;;
72924;SDS011;61070;50.794;7.054;2023-04-25T09:38:43;11.15;;;2.20;;
72924;SDS011;61070;50.794;7.054;2023-04-25T09:41:09;12.38;;;2.55;;
72924;SDS011;61070;50.794;7.054;2023-04-25T09:43:36;7.70;;;2.20;;
72924;SDS011;61070;50.794;7.054;2023-04-25T09:46:02;13.15;;;2.15;;
72924;SDS011;61070;50.794;7.054;2023-04-25T09:51:10;10.33;;;1.97;;
72924;SDS011;61070;50.794;7.054;2023-04-25T09:53:43;8.30;;;2.25;;
72924;SDS011;61070;50.794;7.054;2023-04-25T09:56:11;7.63;;;2.33;;
72924;SDS011;61070;50.794;7.054;2023-04-25T09:58:37;9.50;;;1.95;;
72924;SDS011;61070;50.794;7.054;2023-04-25T10:01:05;16.45;;;2.45;;
72924;SDS011;61070;50.794;7.054;2023-04-25T10:03:35;13.38;;;2.40;;
72924;SDS011;61070;50.794;7.054;2023-04-25T10:06:03;16.55;;;2.00;;
72924;SDS011;61070;50.794;7.054;2023-04-25T10:08:32;11.52;;;2.28;;
72924;SDS011;61070;50.794;7.054;2023-04-25T10:11:00;12.35;;;2.50;;
72924;SDS011;61070;50.794;7.054;2023-04-25T10:13:29;11.82;;;2.10;;
72924;SDS011;61070;50.794;7.054;2023-04-25T10:15:59;8.77;;;1.55;;
72924;SDS011;61070;50.794;7.054;2023-04-25T10:18:27;14.32;;;2.85;;
72924;SDS011;61070;50.794;7.054;2023-04-25T10:20:54;9.13;;;1.65;;
72924;SDS011;61070;50.794;7.054;2023-04-25T10:23:21;13.63;;;2.25;;
72924;SDS011;61070;50.794;7.054;2023-04-25T10:25:46;14.43;;;2.25;;
72924;SDS011;61070;50.794;7.054;2023-04-25T10:28:13;14.60;;;2.45;;
72924;SDS011;61070;50.794;7.054;2023-04-25T10:30:44;8.30;;;1.92;;
72924;SDS011;61070;50.794;7.054;2023-04-25T10:33:29;10.65;;;2.60;;
72924;SDS011;61070;50.794;7.054;2023-04-25T10:36:07;14.68;;;2.55;;
72924;SDS011;61070;50.794;7.054;2023-04-25T10:38:37;11.52;;;2.88;;
72924;SDS011;61070;50.794;7.054;2023-04-25T10:41:06;11.07;;;2.55;;
72924;SDS011;61070;50.794;7.054;2023-04-25T10:43:42;15.82;;;3.60;;
72924;SDS011;61070;50.794;7.054;2023-04-25T10:46:12;9.02;;;2.47;;
72924;SDS011;61070;50.794;7.054;2023-04-25T10:48:57;14.82;;;2.72;;
72924;SDS011;61070;50.794;7.054;2023-04-25T10:51:25;19.35;;;2.85;;
72924;SDS011;61070;50.794;7.054;2023-04-25T10:56:20;12.80;;;2.33;;
72924;SDS011;61070;50.794;7.054;2023-04-25T11:01:44;18.08;;;2.47;;
72924;SDS011;61070;50.794;7.054;2023-04-25T11:09:29;14.70;;;2.63;;
72924;SDS011;61070;50.794;7.054;2023-04-25T11:11:58;10.38;;;2.40;;
72924;SDS011;61070;50.794;7.054;2023-04-25T11:14:25;15.27;;;2.97;;
72924;SDS011;61070;50.794;7.054;2023-04-25T11:16:55;8.27;;;2.30;;
72924;SDS011;61070;50.794;7.054;2023-04-25T11:19:21;12.63;;;2.97;;
72924;SDS011;61070;50.794;7.054;2023-04-25T11:21:47;12.52;;;3.13;;
72924;SDS011;61070;50.794;7.054;2023-04-25T11:24:12;11.95;;;2.63;;
72924;SDS011;61070;50.794;7.054;2023-04-25T11:26:37;8.38;;;2.17;;
72924;SDS011;61070;50.794;7.054;2023-04-25T11:29:03;15.05;;;2.97;;
72924;SDS011;61070;50.794;7.054;2023-04-25T11:31:28;14.63;;;3.03;;
72924;SDS011;61070;50.794;7.054;2023-04-25T11:33:56;8.40;;;2.63;;
72924;SDS011;61070;50.794;7.054;2023-04-25T11:36:22;11.48;;;2.50;;
72924;SDS011;61070;50.794;7.054;2023-04-25T11:38:49;19.17;;;2.67;;
72924;SDS011;61070;50.794;7.054;2023-04-25T11:41:16;9.93;;;2.88;;
72924;SDS011;61070;50.794;7.054;2023-04-25T11:43:42;11.18;;;3.00;;
72924;SDS011;61070;50.794;7.054;2023-04-25T11:46:08;14.23;;;2.47;;
72924;SDS011;61070;50.794;7.054;2023-04-25T11:48:42;10.68;;;2.35;;
72924;SDS011;61070;50.794;7.054;2023-04-25T11:51:08;12.18;;;2.42;;
72924;SDS011;61070;50.794;7.054;2023-04-25T11:53:33;7.63;;;1.73;;
72924;SDS011;61070;50.794;7.054;2023-04-25T11:56:00;10.35;;;2.20;;
72924;SDS011;61070;50.794;7.054;2023-04-25T11:58:26;3.95;;;1.20;;
72924;SDS011;61070;50.794;7.054;2023-04-25T12:00:51;4.53;;;1.15;;
72924;SDS011;61070;50.794;7.054;2023-04-25T12:03:17;6.55;;;1.48;;
72924;SDS011;61070;50.794;7.054;2023-04-25T12:05:43;4.10;;;1.38;;
72924;SDS011;61070;50.794;7.054;2023-04-25T12:08:10;7.75;;;2.13;;
72924;SDS011;61070;50.794;7.054;2023-04-25T12:10:39;4.65;;;1.75;;
72924;SDS011;61070;50.794;7.054;2023-04-25T12:15:44;9.18;;;1.75;;
72924;SDS011;61070;50.794;7.054;2023-04-25T12:18:10;8.90;;;2.10;;
72924;SDS011;61070;50.794;7.054;2023-04-25T12:20:35;8.27;;;1.80;;
72924;SDS011;61070;50.794;7.054;2023-04-25T12:23:01;13.23;;;2.20;;
72924;SDS011;61070;50.794;7.054;2023-04-25T12:25:38;8.15;;;1.98;;
72924;SDS011;61070;50.794;7.054;2023-04-25T12:28:18;10.15;;;1.60;;
72924;SDS011;61070;50.794;7.054;2023-04-25T12:30:58;9.45;;;1.90;;
72924;SDS011;61070;50.794;7.054;2023-04-25T12:33:29;11.73;;;1.92;;
72924;SDS011;61070;50.794;7.054;2023-04-25T12:35:55;11.70;;;2.90;;
72924;SDS011;61070;50.794;7.054;2023-04-25T12:40:58;9.82;;;1.83;;
72924;SDS011;61070;50.794;7.054;2023-04-25T12:43:24;10.82;;;1.85;;
72924;SDS011;61070;50.794;7.054;2023-04-25T12:45:50;8.63;;;1.40;;
72924;SDS011;61070;50.794;7.054;2023-04-25T12:48:19;5.95;;;1.67;;
72924;SDS011;61070;50.794;7.054;2023-04-25T12:50:46;9.48;;;1.48;;
72924;SDS011;61070;50.794;7.054;2023-04-25T12:53:18;6.85;;;1.77;;
72924;SDS011;61070;50.794;7.054;2023-04-25T12:55:45;8.45;;;1.38;;
72924;SDS011;61070;50.794;7.054;2023-04-25T12:58:12;13.63;;;1.95;;
72924;SDS011;61070;50.794;7.054;2023-04-25T13:00:37;4.18;;;1.60;;
72924;SDS011;61070;50.794;7.054;2023-04-25T13:03:03;3.67;;;1.40;;
72924;SDS011;61070;50.794;7.054;2023-04-25T13:05:29;6.18;;;1.77;;
72924;SDS011;61070;50.794;7.054;2023-04-25T13:07:55;6.28;;;1.90;;
72924;SDS011;61070;50.794;7.054;2023-04-25T13:10:20;7.50;;;2.42;;
72924;SDS011;61070;50.794;7.054;2023-04-25T13:12:46;9.20;;;2.08;;
72924;SDS011;61070;50.794;7.054;2023-04-25T13:15:11;9.88;;;1.85;;
72924;SDS011;61070;50.794;7.054;2023-04-25T13:17:37;9.23;;;2.35;;
72924;SDS011;61070;50.794;7.054;2023-04-25T13:20:04;8.93;;;2.05;;
72924;SDS011;61070;50.794;7.054;2023-04-25T13:22:34;9.07;;;2.05;;
72924;SDS011;61070;50.794;7.054;2023-04-25T13:25:02;9.93;;;1.98;;
72924;SDS011;61070;50.794;7.054;2023-04-25T13:27:27;8.57;;;2.05;;
72924;SDS011;61070;50.794;7.054;2023-04-25T13:29:53;4.68;;;2.05;;
72924;SDS011;61070;50.794;7.054;2023-04-25T13:32:18;6.45;;;1.70;;
72924;SDS011;61070;50.794;7.054;2023-04-25T13:34:43;7.22;;;1.77;;
72924;SDS011;61070;50.794;7.054;2023-04-25T13:37:08;9.95;;;2.22;;
72924;SDS011;61070;50.794;7.054;2023-04-25T13:39:34;8.55;;;2.38;;
72924;SDS011;61070;50.794;7.054;2023-04-25T13:41:59;13.60;;;2.72;;
72924;SDS011;61070;50.794;7.054;2023-04-25T13:44:25;6.45;;;1.92;;
72924;SDS011;61070;50.794;7.054;2023-04-25T13:46:50;6.70;;;2.30;;
72924;SDS011;61070;50.794;7.054;2023-04-25T13:49:15;6.43;;;2.25;;
72924;SDS011;61070;50.794;7.054;2023-04-25T13:51:41;5.50;;;2.05;;
72924;SDS011;61070;50.794;7.054;2023-04-25T13:54:07;8.68;;;2.50;;
72924;SDS011;61070;50.794;7.054;2023-04-25T13:56:32;11.00;;;2.13;;
72924;SDS011;61070;50.794;7.054;2023-04-25T13:58:58;13.13;;;2.40;;
72924;SDS011;61070;50.794;7.054;2023-04-25T14:01:23;6.38;;;2.13;;
72924;SDS011;61070;50.794;7.054;2023-04-25T14:03:48;7.50;;;1.88;;
72924;SDS011;61070;50.794;7.054;2023-04-25T14:06:14;8.32;;;2.10;;
72924;SDS011;61070;50.794;7.054;2023-04-25T14:08:42;10.55;;;2.10;;
72924;SDS011;61070;50.794;7.054;2023-04-25T14:11:07;7.55;;;1.77;;
72924;SDS011;61070;50.794;7.054;2023-04-25T14:13:32;10.25;;;1.55;;
72924;SDS011;61070;50.794;7.054;2023-04-25T14:15:57;9.80;;;1.73;;
72924;SDS011;61070;50.794;7.054;2023-04-25T14:18:23;4.32;;;1.73;;
72924;SDS011;61070;50.794;7.054;2023-04-25T14:20:48;6.55;;;1.63;;
72924;SDS011;61070;50.794;7.054;2023-04-25T14:23:13;8.13;;;2.28;;
72924;SDS011;61070;50.794;7.054;2023-04-25T14:25:38;6.53;;;1.88;;
72924;SDS011;61070;50.794;7.054;2023-04-25T14:28:04;9.82;;;2.28;;
72924;SDS011;61070;50.794;7.054;2023-04-25T14:30:30;6.10;;;1.92;;
72924;SDS011;61070;50.794;7.054;2023-04-25T14:32:55;8.35;;;1.65;;
72924;SDS011;61070;50.794;7.054;2023-04-25T14:35:20;8.18;;;1.95;;
72924;SDS011;61070;50.794;7.054;2023-04-25T14:37:46;6.55;;;2.22;;
72924;SDS011;61070;50.794;7.054;2023-04-25T14:40:11;11.88;;;1.88;;
72924;SDS011;61070;50.794;7.054;2023-04-25T14:42:38;4.30;;;1.52;;
72924;SDS011;61070;50.794;7.054;2023-04-25T14:45:05;7.25;;;1.30;;
72924;SDS011;61070;50.794;7.054;2023-04-25T14:47:32;4.85;;;1.55;;
72924;SDS011;61070;50.794;7.054;2023-04-25T14:49:57;2.17;;;1.05;;
72924;SDS011;61070;50.794;7.054;2023-04-25T14:52:23;3.40;;;1.17;;
72924;SDS011;61070;50.794;7.054;2023-04-25T14:54:48;7.22;;;1.23;;